sensor_id;sensor_type;location;lat;lon;timestamp;P1;durP1;ratioP1;P2;durP2;ratioP2
27696;SDS011;15105;56.514;21.002;2022-09-01T00:02:28;7.88;;;1.25;;
27696;SDS011;15105;56.514;21.002;2022-09-01T00:04:56;4.13;;;1.00;;
27696;SDS011;15105;56.514;21.002;2022-09-01T00:07:25;1.88;;;0.90;;
27696;SDS011;15105;56.514;21.002;2022-09-01T00:09:55;1.42;;;1.00;;
27696;SDS011;15105;56.514;21.002;2022-09-01T00:12:24;3.05;;;1.10;;
27696;SDS011;15105;56.514;21.002;2022-09-01T00:14:52;2.80;;;1.58;;
27696;SDS011;15105;56.514;21.002;2022-09-01T00:17:19;13.50;;;3.58;;
27696;SDS011;15105;56.514;21.002;2022-09-01T00:19:47;18.23;;;14.80;;
27696;SDS011;15105;56.514;21.002;2022-09-01T00:22:14;15.75;;;14.07;;
27696;SDS011;15105;56.514;21.002;2022-09-01T00:24:41;12.07;;;9.15;;
27696;SDS011;15105;56.514;21.002;2022-09-01T00:27:08;10.02;;;6.57;;
27696;SDS011;15105;56.514;21.002;2022-09-01T00:29:35;6.55;;;5.47;;
27696;SDS011;15105;56.514;21.002;2022-09-01T00:32:08;5.15;;;3.30;;
27696;SDS011;15105;56.514;21.002;2022-09-01T00:34:36;3.80;;;2.00;;
27696;SDS011;15105;56.514;21.002;2022-09-01T00:37:03;6.10;;;1.70;;
27696;SDS011;15105;56.514;21.002;2022-09-01T00:39:30;3.70;;;1.52;;
27696;SDS011;15105;56.514;21.002;2022-09-01T00:41:57;3.30;;;1.20;;
27696;SDS011;15105;56.514;21.002;2022-09-01T00:44:25;4.32;;;1.48;;
27696;SDS011;15105;56.514;21.002;2022-09-01T00:46:56;4.65;;;1.63;;
27696;SDS011;15105;56.514;21.002;2022-09-01T00:52:03;4.82;;;1.20;;
27696;SDS011;15105;56.514;21.002;2022-09-01T00:54:52;7.70;;;1.05;;
27696;SDS011;15105;56.514;21.002;2022-09-01T00:57:23;5.90;;;1.00;;
27696;SDS011;15105;56.514;21.002;2022-09-01T00:59:52;4.38;;;1.20;;
27696;SDS011;15105;56.514;21.002;2022-09-01T01:02:26;3.67;;;1.33;;
27696;SDS011;15105;56.514;21.002;2022-09-01T01:04:53;5.50;;;1.17;;
27696;SDS011;15105;56.514;21.002;2022-09-01T01:07:26;4.63;;;0.98;;
27696;SDS011;15105;56.514;21.002;2022-09-01T01:09:54;1.75;;;0.70;;
27696;SDS011;15105;56.514;21.002;2022-09-01T01:12:22;2.50;;;0.82;;
27696;SDS011;15105;56.514;21.002;2022-09-01T01:14:52;2.78;;;0.50;;
27696;SDS011;15105;56.514;21.002;2022-09-01T01:17:20;3.13;;;0.88;;
27696;SDS011;15105;56.514;21.002;2022-09-01T01:25:37;3.88;;;0.70;;
27696;SDS011;15105;56.514;21.002;2022-09-01T01:28:14;1.50;;;0.60;;
27696;SDS011;15105;56.514;21.002;2022-09-01T01:30:43;3.95;;;0.70;;
27696;SDS011;15105;56.514;21.002;2022-09-01T01:33:18;5.43;;;0.90;;
27696;SDS011;15105;56.514;21.002;2022-09-01T01:35:50;2.55;;;0.70;;
27696;SDS011;15105;56.514;21.002;2022-09-01T01:38:18;2.55;;;0.60;;
27696;SDS011;15105;56.514;21.002;2022-09-01T01:40:49;3.95;;;1.00;;
27696;SDS011;15105;56.514;21.002;2022-09-01T01:43:20;4.85;;;2.78;;
27696;SDS011;15105;56.514;21.002;2022-09-01T01:45:50;8.55;;;2.60;;
27696;SDS011;15105;56.514;21.002;2022-09-01T01:48:19;5.00;;;2.10;;
27696;SDS011;15105;56.514;21.002;2022-09-01T01:50:50;7.95;;;1.40;;
27696;SDS011;15105;56.514;21.002;2022-09-01T01:53:18;3.85;;;1.20;;
27696;SDS011;15105;56.514;21.002;2022-09-01T01:55:46;2.20;;;0.73;;
27696;SDS011;15105;56.514;21.002;2022-09-01T01:58:17;2.55;;;0.60;;
27696;SDS011;15105;56.514;21.002;2022-09-01T02:00:47;0.50;;;0.50;;
27696;SDS011;15105;56.514;21.002;2022-09-01T02:03:15;2.90;;;1.50;;
27696;SDS011;15105;56.514;21.002;2022-09-01T02:05:46;0.70;;;0.45;;
27696;SDS011;15105;56.514;21.002;2022-09-01T02:08:17;0.90;;;0.40;;
27696;SDS011;15105;56.514;21.002;2022-09-01T02:10:48;1.35;;;0.50;;
27696;SDS011;15105;56.514;21.002;2022-09-01T02:13:17;1.55;;;0.60;;
27696;SDS011;15105;56.514;21.002;2022-09-01T02:15:47;0.70;;;0.40;;
27696;SDS011;15105;56.514;21.002;2022-09-01T02:18:20;2.10;;;0.50;;
27696;SDS011;15105;56.514;21.002;2022-09-01T02:20:56;1.55;;;0.70;;
27696;SDS011;15105;56.514;21.002;2022-09-01T02:23:26;3.10;;;0.52;;
27696;SDS011;15105;56.514;21.002;2022-09-01T02:25:57;6.25;;;0.60;;
27696;SDS011;15105;56.514;21.002;2022-09-01T02:28:48;3.20;;;0.60;;
27696;SDS011;15105;56.514;21.002;2022-09-01T02:31:21;2.13;;;0.82;;
27696;SDS011;15105;56.514;21.002;2022-09-01T02:33:49;3.03;;;0.60;;
27696;SDS011;15105;56.514;21.002;2022-09-01T02:36:17;3.08;;;1.00;;
27696;SDS011;15105;56.514;21.002;2022-09-01T02:38:46;2.05;;;0.60;;
27696;SDS011;15105;56.514;21.002;2022-09-01T02:41:21;1.90;;;0.70;;
27696;SDS011;15105;56.514;21.002;2022-09-01T02:44:00;5.38;;;0.68;;
27696;SDS011;15105;56.514;21.002;2022-09-01T02:46:28;3.03;;;0.52;;
27696;SDS011;15105;56.514;21.002;2022-09-01T02:48:55;1.90;;;0.60;;
27696;SDS011;15105;56.514;21.002;2022-09-01T02:51:23;1.40;;;0.60;;
27696;SDS011;15105;56.514;21.002;2022-09-01T02:53:53;1.33;;;0.70;;
27696;SDS011;15105;56.514;21.002;2022-09-01T02:56:21;2.22;;;0.80;;
27696;SDS011;15105;56.514;21.002;2022-09-01T02:58:51;1.60;;;0.50;;
27696;SDS011;15105;56.514;21.002;2022-09-01T03:01:23;1.45;;;0.60;;
27696;SDS011;15105;56.514;21.002;2022-09-01T03:03:54;2.65;;;0.73;;
27696;SDS011;15105;56.514;21.002;2022-09-01T03:06:23;2.80;;;0.50;;
27696;SDS011;15105;56.514;21.002;2022-09-01T03:08:52;1.40;;;0.70;;
27696;SDS011;15105;56.514;21.002;2022-09-01T03:11:22;1.42;;;0.50;;
27696;SDS011;15105;56.514;21.002;2022-09-01T03:13:49;3.20;;;0.60;;
27696;SDS011;15105;56.514;21.002;2022-09-01T03:16:17;1.60;;;0.50;;
27696;SDS011;15105;56.514;21.002;2022-09-01T03:18:44;1.45;;;0.60;;
27696;SDS011;15105;56.514;21.002;2022-09-01T03:21:11;1.00;;;0.60;;
27696;SDS011;15105;56.514;21.002;2022-09-01T03:23:42;4.03;;;0.80;;
27696;SDS011;15105;56.514;21.002;2022-09-01T03:26:11;1.88;;;0.90;;
27696;SDS011;15105;56.514;21.002;2022-09-01T03:28:39;2.67;;;0.95;;
27696;SDS011;15105;56.514;21.002;2022-09-01T03:31:09;2.65;;;1.10;;
27696;SDS011;15105;56.514;21.002;2022-09-01T03:33:36;4.88;;;1.50;;
27696;SDS011;15105;56.514;21.002;2022-09-01T03:36:17;5.68;;;1.60;;
27696;SDS011;15105;56.514;21.002;2022-09-01T03:38:47;2.58;;;1.30;;
27696;SDS011;15105;56.514;21.002;2022-09-01T03:41:17;3.00;;;1.10;;
27696;SDS011;15105;56.514;21.002;2022-09-01T03:43:47;7.88;;;1.60;;
27696;SDS011;15105;56.514;21.002;2022-09-01T03:46:15;6.60;;;1.13;;
27696;SDS011;15105;56.514;21.002;2022-09-01T03:48:48;3.03;;;1.08;;
27696;SDS011;15105;56.514;21.002;2022-09-01T03:51:18;2.42;;;1.00;;
27696;SDS011;15105;56.514;21.002;2022-09-01T03:53:48;2.30;;;0.85;;
27696;SDS011;15105;56.514;21.002;2022-09-01T03:56:20;2.97;;;1.27;;
27696;SDS011;15105;56.514;21.002;2022-09-01T03:58:49;3.03;;;0.90;;
27696;SDS011;15105;56.514;21.002;2022-09-01T04:01:17;6.85;;;1.10;;
27696;SDS011;15105;56.514;21.002;2022-09-01T04:03:45;5.88;;;0.90;;
27696;SDS011;15105;56.514;21.002;2022-09-01T04:06:17;4.40;;;1.10;;
27696;SDS011;15105;56.514;21.002;2022-09-01T04:08:45;3.03;;;0.90;;
27696;SDS011;15105;56.514;21.002;2022-09-01T04:11:17;2.03;;;0.80;;
27696;SDS011;15105;56.514;21.002;2022-09-01T04:13:45;3.90;;;0.90;;
27696;SDS011;15105;56.514;21.002;2022-09-01T04:16:17;2.83;;;0.95;;
27696;SDS011;15105;56.514;21.002;2022-09-01T04:19:04;6.93;;;0.82;;
27696;SDS011;15105;56.514;21.002;2022-09-01T04:21:45;4.70;;;1.00;;
27696;SDS011;15105;56.514;21.002;2022-09-01T04:24:12;4.63;;;0.70;;
27696;SDS011;15105;56.514;21.002;2022-09-01T04:26:41;1.55;;;0.88;;
27696;SDS011;15105;56.514;21.002;2022-09-01T04:29:08;3.10;;;0.90;;
27696;SDS011;15105;56.514;21.002;2022-09-01T04:31:37;4.57;;;0.80;;
27696;SDS011;15105;56.514;21.002;2022-09-01T04:34:05;1.75;;;0.68;;
27696;SDS011;15105;56.514;21.002;2022-09-01T04:36:40;2.13;;;1.10;;
27696;SDS011;15105;56.514;21.002;2022-09-01T04:39:13;3.08;;;0.70;;
27696;SDS011;15105;56.514;21.002;2022-09-01T04:41:41;1.75;;;0.70;;
27696;SDS011;15105;56.514;21.002;2022-09-01T04:44:11;4.85;;;0.88;;
27696;SDS011;15105;56.514;21.002;2022-09-01T04:46:44;1.20;;;0.85;;
27696;SDS011;15105;56.514;21.002;2022-09-01T04:49:14;0.90;;;0.70;;
27696;SDS011;15105;56.514;21.002;2022-09-01T04:51:48;1.33;;;0.75;;
27696;SDS011;15105;56.514;21.002;2022-09-01T04:54:19;3.13;;;0.90;;
27696;SDS011;15105;56.514;21.002;2022-09-01T04:56:48;1.52;;;0.82;;
27696;SDS011;15105;56.514;21.002;2022-09-01T04:59:19;5.03;;;1.10;;
27696;SDS011;15105;56.514;21.002;2022-09-01T05:01:49;4.15;;;0.90;;
27696;SDS011;15105;56.514;21.002;2022-09-01T05:04:21;2.50;;;0.95;;
27696;SDS011;15105;56.514;21.002;2022-09-01T05:06:51;2.63;;;0.70;;
27696;SDS011;15105;56.514;21.002;2022-09-01T05:09:28;5.80;;;1.00;;
27696;SDS011;15105;56.514;21.002;2022-09-01T05:14:41;2.58;;;0.90;;
27696;SDS011;15105;56.514;21.002;2022-09-01T05:17:12;4.75;;;0.98;;
27696;SDS011;15105;56.514;21.002;2022-09-01T05:19:59;1.88;;;0.60;;
27696;SDS011;15105;56.514;21.002;2022-09-01T05:22:27;3.45;;;1.10;;
27696;SDS011;15105;56.514;21.002;2022-09-01T05:24:54;3.25;;;1.00;;
27696;SDS011;15105;56.514;21.002;2022-09-01T05:27:21;2.70;;;0.70;;
27696;SDS011;15105;56.514;21.002;2022-09-01T05:29:48;1.70;;;0.70;;
27696;SDS011;15105;56.514;21.002;2022-09-01T05:32:15;4.97;;;2.38;;
27696;SDS011;15105;56.514;21.002;2022-09-01T05:34:42;2.42;;;1.00;;
27696;SDS011;15105;56.514;21.002;2022-09-01T05:37:11;3.95;;;0.90;;
27696;SDS011;15105;56.514;21.002;2022-09-01T05:39:42;4.95;;;1.40;;
27696;SDS011;15105;56.514;21.002;2022-09-01T05:42:09;3.85;;;2.15;;
27696;SDS011;15105;56.514;21.002;2022-09-01T05:44:39;1.50;;;0.98;;
27696;SDS011;15105;56.514;21.002;2022-09-01T05:47:10;6.07;;;2.30;;
27696;SDS011;15105;56.514;21.002;2022-09-01T05:49:46;4.28;;;2.17;;
27696;SDS011;15105;56.514;21.002;2022-09-01T05:52:15;10.43;;;6.35;;
27696;SDS011;15105;56.514;21.002;2022-09-01T05:54:42;6.70;;;4.75;;
27696;SDS011;15105;56.514;21.002;2022-09-01T05:57:11;7.07;;;3.05;;
27696;SDS011;15105;56.514;21.002;2022-09-01T05:59:59;6.40;;;2.85;;
27696;SDS011;15105;56.514;21.002;2022-09-01T06:02:26;2.03;;;1.27;;
27696;SDS011;15105;56.514;21.002;2022-09-01T06:04:55;2.75;;;1.42;;
27696;SDS011;15105;56.514;21.002;2022-09-01T06:07:22;3.38;;;1.30;;
27696;SDS011;15105;56.514;21.002;2022-09-01T06:09:53;2.60;;;1.10;;
27696;SDS011;15105;56.514;21.002;2022-09-01T06:12:22;4.80;;;2.00;;
27696;SDS011;15105;56.514;21.002;2022-09-01T06:14:50;12.00;;;5.32;;
27696;SDS011;15105;56.514;21.002;2022-09-01T06:17:20;1.63;;;0.60;;
27696;SDS011;15105;56.514;21.002;2022-09-01T06:19:53;4.40;;;0.95;;
27696;SDS011;15105;56.514;21.002;2022-09-01T06:22:21;3.55;;;2.25;;
27696;SDS011;15105;56.514;21.002;2022-09-01T06:24:51;1.85;;;1.00;;
27696;SDS011;15105;56.514;21.002;2022-09-01T06:27:27;3.00;;;0.70;;
27696;SDS011;15105;56.514;21.002;2022-09-01T06:29:55;5.90;;;1.13;;
27696;SDS011;15105;56.514;21.002;2022-09-01T06:32:24;1.70;;;0.70;;
27696;SDS011;15105;56.514;21.002;2022-09-01T06:34:52;2.47;;;1.30;;
27696;SDS011;15105;56.514;21.002;2022-09-01T06:37:19;2.55;;;1.00;;
27696;SDS011;15105;56.514;21.002;2022-09-01T06:39:48;4.00;;;1.27;;
27696;SDS011;15105;56.514;21.002;2022-09-01T06:42:16;3.20;;;1.08;;
27696;SDS011;15105;56.514;21.002;2022-09-01T06:44:45;2.15;;;0.70;;
27696;SDS011;15105;56.514;21.002;2022-09-01T06:47:12;7.88;;;2.38;;
27696;SDS011;15105;56.514;21.002;2022-09-01T06:49:41;2.90;;;1.10;;
27696;SDS011;15105;56.514;21.002;2022-09-01T06:52:08;6.25;;;2.00;;
27696;SDS011;15105;56.514;21.002;2022-09-01T06:54:37;4.88;;;1.67;;
27696;SDS011;15105;56.514;21.002;2022-09-01T06:57:09;1.88;;;0.80;;
27696;SDS011;15105;56.514;21.002;2022-09-01T06:59:56;3.33;;;1.50;;
27696;SDS011;15105;56.514;21.002;2022-09-01T07:02:23;4.38;;;1.00;;
27696;SDS011;15105;56.514;21.002;2022-09-01T07:05:11;1.48;;;0.70;;
27696;SDS011;15105;56.514;21.002;2022-09-01T07:07:59;2.05;;;0.43;;
27696;SDS011;15105;56.514;21.002;2022-09-01T07:10:32;1.08;;;0.50;;
27696;SDS011;15105;56.514;21.002;2022-09-01T07:13:21;2.33;;;0.70;;
27696;SDS011;15105;56.514;21.002;2022-09-01T07:15:52;2.08;;;0.47;;
27696;SDS011;15105;56.514;21.002;2022-09-01T07:18:40;1.13;;;0.40;;
27696;SDS011;15105;56.514;21.002;2022-09-01T07:21:09;1.73;;;0.63;;
27696;SDS011;15105;56.514;21.002;2022-09-01T07:23:57;6.18;;;1.10;;
27696;SDS011;15105;56.514;21.002;2022-09-01T07:26:36;3.53;;;0.77;;
27696;SDS011;15105;56.514;21.002;2022-09-01T07:29:25;1.83;;;0.50;;
27696;SDS011;15105;56.514;21.002;2022-09-01T07:31:55;2.97;;;0.80;;
27696;SDS011;15105;56.514;21.002;2022-09-01T07:34:43;2.55;;;0.63;;
27696;SDS011;15105;56.514;21.002;2022-09-01T07:37:15;3.13;;;0.50;;
27696;SDS011;15105;56.514;21.002;2022-09-01T07:40:04;4.07;;;0.57;;
27696;SDS011;15105;56.514;21.002;2022-09-01T07:42:53;1.38;;;0.43;;
27696;SDS011;15105;56.514;21.002;2022-09-01T07:45:43;0.68;;;0.40;;
27696;SDS011;15105;56.514;21.002;2022-09-01T07:48:13;1.73;;;0.60;;
27696;SDS011;15105;56.514;21.002;2022-09-01T07:51:05;3.90;;;1.90;;
27696;SDS011;15105;56.514;21.002;2022-09-01T07:53:52;1.95;;;0.85;;
27696;SDS011;15105;56.514;21.002;2022-09-01T07:56:21;3.33;;;2.10;;
27696;SDS011;15105;56.514;21.002;2022-09-01T07:58:49;1.73;;;0.70;;
27696;SDS011;15105;56.514;21.002;2022-09-01T08:01:24;1.30;;;0.82;;
27696;SDS011;15105;56.514;21.002;2022-09-01T08:03:57;1.33;;;0.40;;
27696;SDS011;15105;56.514;21.002;2022-09-01T08:06:26;2.72;;;0.50;;
27696;SDS011;15105;56.514;21.002;2022-09-01T08:08:55;1.10;;;0.65;;
27696;SDS011;15105;56.514;21.002;2022-09-01T08:11:26;1.35;;;0.68;;
27696;SDS011;15105;56.514;21.002;2022-09-01T08:14:17;2.83;;;0.70;;
27696;SDS011;15105;56.514;21.002;2022-09-01T08:16:45;0.52;;;0.30;;
27696;SDS011;15105;56.514;21.002;2022-09-01T08:19:20;0.60;;;0.40;;
27696;SDS011;15105;56.514;21.002;2022-09-01T08:21:47;3.03;;;0.50;;
27696;SDS011;15105;56.514;21.002;2022-09-01T08:24:14;3.28;;;0.70;;
27696;SDS011;15105;56.514;21.002;2022-09-01T08:26:41;0.50;;;0.30;;
27696;SDS011;15105;56.514;21.002;2022-09-01T08:29:09;0.65;;;0.35;;
27696;SDS011;15105;56.514;21.002;2022-09-01T08:31:36;3.03;;;0.82;;
27696;SDS011;15105;56.514;21.002;2022-09-01T08:34:03;2.45;;;0.50;;
27696;SDS011;15105;56.514;21.002;2022-09-01T08:36:31;2.15;;;0.95;;
27696;SDS011;15105;56.514;21.002;2022-09-01T08:38:59;0.95;;;0.30;;
27696;SDS011;15105;56.514;21.002;2022-09-01T08:44:40;0.70;;;0.50;;
27696;SDS011;15105;56.514;21.002;2022-09-01T08:47:21;0.87;;;0.40;;
27696;SDS011;15105;56.514;21.002;2022-09-01T08:50:09;2.95;;;0.50;;
27696;SDS011;15105;56.514;21.002;2022-09-01T08:52:46;4.15;;;0.60;;
27696;SDS011;15105;56.514;21.002;2022-09-01T08:55:21;2.38;;;0.20;;
27696;SDS011;15105;56.514;21.002;2022-09-01T08:57:53;4.72;;;0.70;;
27696;SDS011;15105;56.514;21.002;2022-09-01T09:00:29;1.00;;;0.82;;
27696;SDS011;15105;56.514;21.002;2022-09-01T09:08:58;1.60;;;0.70;;
27696;SDS011;15105;56.514;21.002;2022-09-01T09:11:35;2.47;;;0.52;;
27696;SDS011;15105;56.514;21.002;2022-09-01T09:17:06;3.45;;;1.00;;
27696;SDS011;15105;56.514;21.002;2022-09-01T09:19:39;2.63;;;0.45;;
27696;SDS011;15105;56.514;21.002;2022-09-01T09:22:25;0.57;;;0.40;;
27696;SDS011;15105;56.514;21.002;2022-09-01T09:24:55;1.43;;;0.40;;
27696;SDS011;15105;56.514;21.002;2022-09-01T09:27:33;4.72;;;0.50;;
27696;SDS011;15105;56.514;21.002;2022-09-01T09:30:22;0.68;;;0.45;;
27696;SDS011;15105;56.514;21.002;2022-09-01T09:33:00;1.02;;;0.60;;
27696;SDS011;15105;56.514;21.002;2022-09-01T09:35:53;4.28;;;0.70;;
27696;SDS011;15105;56.514;21.002;2022-09-01T09:38:23;4.25;;;0.55;;
27696;SDS011;15105;56.514;21.002;2022-09-01T09:43:58;2.80;;;0.45;;
27696;SDS011;15105;56.514;21.002;2022-09-01T09:46:34;1.83;;;0.43;;
27696;SDS011;15105;56.514;21.002;2022-09-01T09:51:32;1.40;;;0.50;;
27696;SDS011;15105;56.514;21.002;2022-09-01T09:54:09;0.98;;;0.57;;
27696;SDS011;15105;56.514;21.002;2022-09-01T09:56:48;3.92;;;1.30;;
27696;SDS011;15105;56.514;21.002;2022-09-01T09:59:48;8.43;;;0.57;;
27696;SDS011;15105;56.514;21.002;2022-09-01T10:02:34;5.38;;;0.50;;
27696;SDS011;15105;56.514;21.002;2022-09-01T10:08:03;5.50;;;0.70;;
27696;SDS011;15105;56.514;21.002;2022-09-01T10:13:09;4.65;;;0.68;;
27696;SDS011;15105;56.514;21.002;2022-09-01T10:15:39;6.72;;;0.63;;
27696;SDS011;15105;56.514;21.002;2022-09-01T10:18:12;3.95;;;0.75;;
27696;SDS011;15105;56.514;21.002;2022-09-01T10:21:21;2.22;;;0.57;;
27696;SDS011;15105;56.514;21.002;2022-09-01T10:23:54;3.15;;;0.52;;
27696;SDS011;15105;56.514;21.002;2022-09-01T10:26:41;2.65;;;0.52;;
27696;SDS011;15105;56.514;21.002;2022-09-01T10:29:14;5.55;;;0.65;;
27696;SDS011;15105;56.514;21.002;2022-09-01T10:31:45;3.92;;;0.55;;
27696;SDS011;15105;56.514;21.002;2022-09-01T10:34:14;8.38;;;0.70;;
27696;SDS011;15105;56.514;21.002;2022-09-01T10:36:45;9.43;;;0.70;;
27696;SDS011;15105;56.514;21.002;2022-09-01T10:39:22;3.13;;;0.75;;
27696;SDS011;15105;56.514;21.002;2022-09-01T10:41:56;6.80;;;0.60;;
27696;SDS011;15105;56.514;21.002;2022-09-01T10:44:31;2.47;;;0.60;;
27696;SDS011;15105;56.514;21.002;2022-09-01T10:47:12;2.45;;;0.60;;
27696;SDS011;15105;56.514;21.002;2022-09-01T10:55:18;1.35;;;0.35;;
27696;SDS011;15105;56.514;21.002;2022-09-01T11:01:03;3.00;;;0.32;;
27696;SDS011;15105;56.514;21.002;2022-09-01T11:03:51;3.03;;;0.50;;
27696;SDS011;15105;56.514;21.002;2022-09-01T11:14:18;6.75;;;0.45;;
27696;SDS011;15105;56.514;21.002;2022-09-01T11:19:55;8.60;;;1.30;;
27696;SDS011;15105;56.514;21.002;2022-09-01T11:25:06;9.52;;;0.65;;
27696;SDS011;15105;56.514;21.002;2022-09-01T11:30:21;7.20;;;0.90;;
27696;SDS011;15105;56.514;21.002;2022-09-01T11:32:52;2.20;;;0.50;;
27696;SDS011;15105;56.514;21.002;2022-09-01T11:35:25;3.30;;;0.40;;
27696;SDS011;15105;56.514;21.002;2022-09-01T11:37:55;7.43;;;0.52;;
27696;SDS011;15105;56.514;21.002;2022-09-01T11:40:29;5.72;;;1.08;;
27696;SDS011;15105;56.514;21.002;2022-09-01T11:42:59;6.40;;;0.60;;
27696;SDS011;15105;56.514;21.002;2022-09-01T11:48:28;5.82;;;0.93;;
27696;SDS011;15105;56.514;21.002;2022-09-01T11:50:57;8.65;;;0.73;;
27696;SDS011;15105;56.514;21.002;2022-09-01T11:53:27;6.10;;;0.70;;
27696;SDS011;15105;56.514;21.002;2022-09-01T11:55:55;2.97;;;0.47;;
27696;SDS011;15105;56.514;21.002;2022-09-01T11:58:37;9.00;;;0.57;;
27696;SDS011;15105;56.514;21.002;2022-09-01T12:01:13;6.85;;;1.00;;
27696;SDS011;15105;56.514;21.002;2022-09-01T12:04:21;3.05;;;0.60;;
27696;SDS011;15105;56.514;21.002;2022-09-01T12:06:58;4.13;;;0.80;;
27696;SDS011;15105;56.514;21.002;2022-09-01T12:09:35;4.25;;;0.68;;
27696;SDS011;15105;56.514;21.002;2022-09-01T12:15:19;3.95;;;1.10;;
27696;SDS011;15105;56.514;21.002;2022-09-01T12:17:48;5.70;;;0.75;;
27696;SDS011;15105;56.514;21.002;2022-09-01T12:20:23;4.57;;;0.52;;
27696;SDS011;15105;56.514;21.002;2022-09-01T12:22:55;4.03;;;0.50;;
27696;SDS011;15105;56.514;21.002;2022-09-01T12:25:29;2.00;;;0.60;;
27696;SDS011;15105;56.514;21.002;2022-09-01T12:28:02;2.15;;;0.57;;
27696;SDS011;15105;56.514;21.002;2022-09-01T12:30:31;6.78;;;0.60;;
27696;SDS011;15105;56.514;21.002;2022-09-01T12:33:02;1.98;;;0.68;;
27696;SDS011;15105;56.514;21.002;2022-09-01T12:35:49;3.63;;;0.50;;
27696;SDS011;15105;56.514;21.002;2022-09-01T12:40:47;2.47;;;0.40;;
27696;SDS011;15105;56.514;21.002;2022-09-01T12:43:33;1.77;;;0.70;;
27696;SDS011;15105;56.514;21.002;2022-09-01T12:46:00;3.88;;;0.60;;
27696;SDS011;15105;56.514;21.002;2022-09-01T12:48:31;3.33;;;0.70;;
27696;SDS011;15105;56.514;21.002;2022-09-01T12:51:02;3.40;;;0.63;;
27696;SDS011;15105;56.514;21.002;2022-09-01T12:53:49;6.93;;;1.23;;
27696;SDS011;15105;56.514;21.002;2022-09-01T12:59:09;2.30;;;0.32;;
27696;SDS011;15105;56.514;21.002;2022-09-01T13:01:43;8.15;;;0.50;;
27696;SDS011;15105;56.514;21.002;2022-09-01T13:06:51;7.15;;;0.73;;
27696;SDS011;15105;56.514;21.002;2022-09-01T13:09:19;2.05;;;0.50;;
27696;SDS011;15105;56.514;21.002;2022-09-01T13:11:46;1.38;;;0.40;;
27696;SDS011;15105;56.514;21.002;2022-09-01T13:14:33;3.95;;;0.70;;
27696;SDS011;15105;56.514;21.002;2022-09-01T13:17:00;5.20;;;0.70;;
27696;SDS011;15105;56.514;21.002;2022-09-01T13:19:27;2.42;;;0.90;;
27696;SDS011;15105;56.514;21.002;2022-09-01T13:21:55;4.40;;;0.40;;
27696;SDS011;15105;56.514;21.002;2022-09-01T13:24:23;4.53;;;0.50;;
27696;SDS011;15105;56.514;21.002;2022-09-01T13:26:56;1.38;;;0.60;;
27696;SDS011;15105;56.514;21.002;2022-09-01T13:29:43;1.38;;;0.60;;
27696;SDS011;15105;56.514;21.002;2022-09-01T13:32:12;2.08;;;0.50;;
27696;SDS011;15105;56.514;21.002;2022-09-01T13:34:45;2.13;;;0.70;;
27696;SDS011;15105;56.514;21.002;2022-09-01T13:37:16;2.97;;;0.60;;
27696;SDS011;15105;56.514;21.002;2022-09-01T13:39:44;2.25;;;0.70;;
27696;SDS011;15105;56.514;21.002;2022-09-01T13:42:15;5.68;;;0.90;;
27696;SDS011;15105;56.514;21.002;2022-09-01T13:44:43;4.63;;;0.63;;
27696;SDS011;15105;56.514;21.002;2022-09-01T13:47:17;3.83;;;0.65;;
27696;SDS011;15105;56.514;21.002;2022-09-01T13:50:04;2.25;;;0.70;;
27696;SDS011;15105;56.514;21.002;2022-09-01T13:52:37;2.95;;;0.70;;
27696;SDS011;15105;56.514;21.002;2022-09-01T13:55:07;9.88;;;0.80;;
27696;SDS011;15105;56.514;21.002;2022-09-01T13:57:37;2.33;;;0.70;;
27696;SDS011;15105;56.514;21.002;2022-09-01T14:00:05;2.78;;;0.50;;
27696;SDS011;15105;56.514;21.002;2022-09-01T14:02:39;4.72;;;0.70;;
27696;SDS011;15105;56.514;21.002;2022-09-01T14:05:09;1.48;;;0.50;;
27696;SDS011;15105;56.514;21.002;2022-09-01T14:07:37;4.78;;;1.15;;
27696;SDS011;15105;56.514;21.002;2022-09-01T14:10:04;5.18;;;0.80;;
27696;SDS011;15105;56.514;21.002;2022-09-01T14:12:33;2.53;;;0.80;;
27696;SDS011;15105;56.514;21.002;2022-09-01T14:15:00;2.15;;;0.60;;
27696;SDS011;15105;56.514;21.002;2022-09-01T14:17:49;3.60;;;0.60;;
27696;SDS011;15105;56.514;21.002;2022-09-01T14:20:22;3.90;;;0.70;;
27696;SDS011;15105;56.514;21.002;2022-09-01T14:22:52;2.50;;;0.70;;
27696;SDS011;15105;56.514;21.002;2022-09-01T14:25:21;2.95;;;0.70;;
27696;SDS011;15105;56.514;21.002;2022-09-01T14:27:48;1.92;;;0.50;;
27696;SDS011;15105;56.514;21.002;2022-09-01T14:30:18;3.88;;;0.70;;
27696;SDS011;15105;56.514;21.002;2022-09-01T14:32:47;2.70;;;0.50;;
27696;SDS011;15105;56.514;21.002;2022-09-01T14:35:16;0.65;;;0.40;;
27696;SDS011;15105;56.514;21.002;2022-09-01T14:37:46;3.28;;;0.40;;
27696;SDS011;15105;56.514;21.002;2022-09-01T14:40:16;3.13;;;0.60;;
27696;SDS011;15105;56.514;21.002;2022-09-01T14:42:46;3.00;;;0.68;;
27696;SDS011;15105;56.514;21.002;2022-09-01T14:45:19;1.73;;;0.40;;
27696;SDS011;15105;56.514;21.002;2022-09-01T14:47:48;2.03;;;0.60;;
27696;SDS011;15105;56.514;21.002;2022-09-01T14:50:19;1.15;;;0.47;;
27696;SDS011;15105;56.514;21.002;2022-09-01T14:52:49;0.85;;;0.40;;
27696;SDS011;15105;56.514;21.002;2022-09-01T14:55:20;1.35;;;0.60;;
27696;SDS011;15105;56.514;21.002;2022-09-01T14:57:50;2.00;;;0.50;;
27696;SDS011;15105;56.514;21.002;2022-09-01T15:00:18;2.70;;;0.55;;
27696;SDS011;15105;56.514;21.002;2022-09-01T15:02:46;2.13;;;0.50;;
27696;SDS011;15105;56.514;21.002;2022-09-01T15:05:14;3.70;;;0.60;;
27696;SDS011;15105;56.514;21.002;2022-09-01T15:07:42;1.75;;;0.80;;
27696;SDS011;15105;56.514;21.002;2022-09-01T15:10:10;1.52;;;0.50;;
27696;SDS011;15105;56.514;21.002;2022-09-01T15:12:58;2.65;;;0.65;;
27696;SDS011;15105;56.514;21.002;2022-09-01T15:15:27;0.80;;;0.50;;
27696;SDS011;15105;56.514;21.002;2022-09-01T15:17:55;1.40;;;0.55;;
27696;SDS011;15105;56.514;21.002;2022-09-01T15:20:22;1.00;;;0.60;;
27696;SDS011;15105;56.514;21.002;2022-09-01T15:23:11;1.48;;;0.60;;
27696;SDS011;15105;56.514;21.002;2022-09-01T15:25:40;3.58;;;0.68;;
27696;SDS011;15105;56.514;21.002;2022-09-01T15:28:08;1.95;;;0.70;;
27696;SDS011;15105;56.514;21.002;2022-09-01T15:30:35;2.47;;;0.98;;
27696;SDS011;15105;56.514;21.002;2022-09-01T15:33:05;1.42;;;0.70;;
27696;SDS011;15105;56.514;21.002;2022-09-01T15:35:40;1.38;;;0.55;;
27696;SDS011;15105;56.514;21.002;2022-09-01T15:38:07;1.70;;;0.82;;
27696;SDS011;15105;56.514;21.002;2022-09-01T15:40:55;3.40;;;0.80;;
27696;SDS011;15105;56.514;21.002;2022-09-01T15:43:24;13.25;;;1.00;;
27696;SDS011;15105;56.514;21.002;2022-09-01T15:45:51;5.93;;;0.80;;
27696;SDS011;15105;56.514;21.002;2022-09-01T15:48:19;3.10;;;0.57;;
27696;SDS011;15105;56.514;21.002;2022-09-01T15:50:47;4.72;;;0.82;;
27696;SDS011;15105;56.514;21.002;2022-09-01T15:53:17;3.50;;;0.80;;
27696;SDS011;15105;56.514;21.002;2022-09-01T15:55:45;5.05;;;1.33;;
27696;SDS011;15105;56.514;21.002;2022-09-01T15:58:14;4.97;;;1.23;;
27696;SDS011;15105;56.514;21.002;2022-09-01T16:00:43;11.00;;;0.95;;
27696;SDS011;15105;56.514;21.002;2022-09-01T16:03:10;4.57;;;0.70;;
27696;SDS011;15105;56.514;21.002;2022-09-01T16:05:38;3.90;;;1.45;;
27696;SDS011;15105;56.514;21.002;2022-09-01T16:08:07;11.65;;;1.40;;
27696;SDS011;15105;56.514;21.002;2022-09-01T16:10:36;6.25;;;1.10;;
27696;SDS011;15105;56.514;21.002;2022-09-01T16:13:05;3.20;;;1.30;;
27696;SDS011;15105;56.514;21.002;2022-09-01T16:15:33;2.10;;;0.90;;
27696;SDS011;15105;56.514;21.002;2022-09-01T16:23:33;1.02;;;0.63;;